sensor_id;sensor_type;location;lat;lon;timestamp;pressure;altitude;pressure_sealevel;temperature;humidity
14293;BME280;62290;59.420;17.842;2023-05-01T00:01:50;101206.03;;;20.77;22.03
14293;BME280;62290;59.420;17.842;2023-05-01T00:04:18;101217.81;;;20.74;22.18
14293;BME280;62290;59.420;17.842;2023-05-01T00:06:48;101218.75;;;20.73;22.02
14293;BME280;62290;59.420;17.842;2023-05-01T00:09:16;101215.44;;;20.70;22.22
14293;BME280;62290;59.420;17.842;2023-05-01T00:11:45;101205.88;;;20.66;22.20
14293;BME280;62290;59.420;17.842;2023-05-01T00:14:13;101210.28;;;20.67;22.39
14293;BME280;62290;59.420;17.842;2023-05-01T00:16:41;101214.03;;;20.64;22.03
14293;BME280;62290;59.420;17.842;2023-05-01T00:19:09;101212.31;;;20.63;22.34
14293;BME280;62290;59.420;17.842;2023-05-01T00:21:38;101213.38;;;20.61;22.45
14293;BME280;62290;59.420;17.842;2023-05-01T00:24:06;101212.50;;;20.60;22.48
14293;BME280;62290;59.420;17.842;2023-05-01T00:26:35;101191.34;;;20.43;22.48
14293;BME280;62290;59.420;17.842;2023-05-01T00:29:04;101215.38;;;20.57;22.50
14293;BME280;62290;59.420;17.842;2023-05-01T00:31:33;101202.50;;;20.50;22.31
14293;BME280;62290;59.420;17.842;2023-05-01T00:34:01;101214.75;;;20.54;22.50
14293;BME280;62290;59.420;17.842;2023-05-01T00:36:31;101207.66;;;20.53;22.25
14293;BME280;62290;59.420;17.842;2023-05-01T00:38:59;101205.97;;;20.52;22.58
14293;BME280;62290;59.420;17.842;2023-05-01T00:41:28;101204.22;;;20.51;22.42
14293;BME280;62290;59.420;17.842;2023-05-01T00:43:56;101205.97;;;20.52;22.55
14293;BME280;62290;59.420;17.842;2023-05-01T00:46:26;101186.09;;;20.42;22.54
14293;BME280;62290;59.420;17.842;2023-05-01T00:48:56;101198.13;;;20.49;22.55
14293;BME280;62290;59.420;17.842;2023-05-01T00:51:25;101170.09;;;20.27;22.61
14293;BME280;62290;59.420;17.842;2023-05-01T00:53:56;101201.63;;;20.49;22.40
14293;BME280;62290;59.420;17.842;2023-05-01T00:56:26;101201.88;;;20.46;22.42
14293;BME280;62290;59.420;17.842;2023-05-01T00:58:55;101176.75;;;20.35;22.64
14293;BME280;62290;59.420;17.842;2023-05-01T01:01:23;101167.41;;;20.27;22.55
14293;BME280;62290;59.420;17.842;2023-05-01T01:03:52;101200.13;;;20.45;22.50
14293;BME280;62290;59.420;17.842;2023-05-01T01:06:27;101194.78;;;20.45;22.47
14293;BME280;62290;59.420;17.842;2023-05-01T01:09:08;101197.66;;;20.42;22.66
14293;BME280;62290;59.420;17.842;2023-05-01T01:11:48;101191.88;;;20.36;22.95
14293;BME280;62290;59.420;17.842;2023-05-01T01:14:24;101201.72;;;20.35;22.72
14293;BME280;62290;59.420;17.842;2023-05-01T01:16:57;101206.94;;;20.37;22.76
14293;BME280;62290;59.420;17.842;2023-05-01T01:19:49;101192.81;;;20.35;22.91
14293;BME280;62290;59.420;17.842;2023-05-01T01:22:26;101195.69;;;20.31;22.74
14293;BME280;62290;59.420;17.842;2023-05-01T01:28:31;101196.88;;;20.27;22.99
14293;BME280;62290;59.420;17.842;2023-05-01T01:31:10;101195.13;;;20.26;22.91
14293;BME280;62290;59.420;17.842;2023-05-01T01:33:53;101193.44;;;20.25;23.10
14293;BME280;62290;59.420;17.842;2023-05-01T01:36:31;101189.03;;;20.24;23.12
14293;BME280;62290;59.420;17.842;2023-05-01T01:39:07;101178.81;;;20.17;23.13
14293;BME280;62290;59.420;17.842;2023-05-01T01:41:38;101162.59;;;20.06;22.93
14293;BME280;62290;59.420;17.842;2023-05-01T01:44:11;101182.91;;;20.22;23.20
14293;BME280;62290;59.420;17.842;2023-05-01T01:46:41;101182.91;;;20.22;23.06
14293;BME280;62290;59.420;17.842;2023-05-01T01:49:15;101174.78;;;20.24;22.94
14293;BME280;62290;59.420;17.842;2023-05-01T01:51:47;101179.34;;;20.22;23.11
14293;BME280;62290;59.420;17.842;2023-05-01T01:54:20;101181.16;;;20.21;23.16
14293;BME280;62290;59.420;17.842;2023-05-01T01:56:50;101182.03;;;20.22;23.24
14293;BME280;62290;59.420;17.842;2023-05-01T01:59:20;101171.31;;;20.22;23.18
14293;BME280;62290;59.420;17.842;2023-05-01T02:01:50;101174.94;;;20.21;23.27
14293;BME280;62290;59.420;17.842;2023-05-01T02:04:22;101167.13;;;20.18;22.99
14293;BME280;62290;59.420;17.842;2023-05-01T02:06:52;101166.16;;;20.19;23.35
14293;BME280;62290;59.420;17.842;2023-05-01T02:09:23;101162.81;;;20.15;23.19
14293;BME280;62290;59.420;17.842;2023-05-01T02:11:53;101171.44;;;20.20;23.34
14293;BME280;62290;59.420;17.842;2023-05-01T02:14:24;101168.75;;;20.20;23.18
14293;BME280;62290;59.420;17.842;2023-05-01T02:16:53;101166.16;;;20.19;23.32
14293;BME280;62290;59.420;17.842;2023-05-01T02:19:24;101163.59;;;20.17;23.30
14293;BME280;62290;59.420;17.842;2023-05-01T02:21:55;101167.22;;;20.16;23.42
14293;BME280;62290;59.420;17.842;2023-05-01T02:24:26;101160.25;;;20.14;23.61
14293;BME280;62290;59.420;17.842;2023-05-01T02:26:58;101155.03;;;20.12;23.58
14293;BME280;62290;59.420;17.842;2023-05-01T02:29:28;101159.50;;;20.12;23.56
14293;BME280;62290;59.420;17.842;2023-05-01T02:31:57;101149.75;;;20.11;23.62
14293;BME280;62290;59.420;17.842;2023-05-01T02:34:26;101147.94;;;20.11;23.48
14293;BME280;62290;59.420;17.842;2023-05-01T02:36:55;101151.69;;;20.09;23.62
14293;BME280;62290;59.420;17.842;2023-05-01T02:39:24;101146.44;;;20.07;23.59
14293;BME280;62290;59.420;17.842;2023-05-01T02:41:53;101150.19;;;20.05;23.78
14293;BME280;62290;59.420;17.842;2023-05-01T02:44:25;101135.94;;;20.04;23.84
14293;BME280;62290;59.420;17.842;2023-05-01T02:46:55;101110.41;;;19.86;23.73
14293;BME280;62290;59.420;17.842;2023-05-01T02:49:24;101133.16;;;20.06;23.68
14293;BME280;62290;59.420;17.842;2023-05-01T02:51:54;101136.69;;;20.06;23.82
14293;BME280;62290;59.420;17.842;2023-05-01T02:54:23;101126.09;;;20.05;23.78
14293;BME280;62290;59.420;17.842;2023-05-01T02:56:51;101129.59;;;20.05;23.89
14293;BME280;62290;59.420;17.842;2023-05-01T02:59:19;101126.94;;;20.05;23.79
14293;BME280;62290;59.420;17.842;2023-05-01T03:01:47;101129.53;;;20.07;23.88
14293;BME280;62290;59.420;17.842;2023-05-01T03:04:16;101089.00;;;19.86;24.01
14293;BME280;62290;59.420;17.842;2023-05-01T03:06:44;101112.81;;;20.03;23.95
14293;BME280;62290;59.420;17.842;2023-05-01T03:09:14;101110.88;;;20.05;24.12
14293;BME280;62290;59.420;17.842;2023-05-01T03:11:42;101123.97;;;20.10;23.76
14293;BME280;62290;59.420;17.842;2023-05-01T03:14:11;101124.81;;;20.10;24.10
14293;BME280;62290;59.420;17.842;2023-05-01T03:16:39;101124.72;;;20.12;23.92
14293;BME280;62290;59.420;17.842;2023-05-01T03:19:07;101119.38;;;20.12;23.83
14293;BME280;62290;59.420;17.842;2023-05-01T03:21:36;101116.59;;;20.13;23.71
14293;BME280;62290;59.420;17.842;2023-05-01T03:24:05;101113.03;;;20.13;24.00
14293;BME280;62290;59.420;17.842;2023-05-01T03:26:35;101114.03;;;20.12;24.05
14293;BME280;62290;59.420;17.842;2023-05-01T03:29:03;101121.19;;;20.11;24.12
14293;BME280;62290;59.420;17.842;2023-05-01T03:31:31;101114.09;;;20.10;23.98
14293;BME280;62290;59.420;17.842;2023-05-01T03:33:59;101093.41;;;20.00;24.20
14293;BME280;62290;59.420;17.842;2023-05-01T03:36:27;101114.09;;;20.10;24.18
14293;BME280;62290;59.420;17.842;2023-05-01T03:38:56;101106.00;;;20.12;24.02
14293;BME280;62290;59.420;17.842;2023-05-01T03:41:54;101104.25;;;20.11;24.15
14293;BME280;62290;59.420;17.842;2023-05-01T03:44:25;101098.28;;;20.07;23.86
14293;BME280;62290;59.420;17.842;2023-05-01T03:46:53;101116.78;;;20.10;24.26
14293;BME280;62290;59.420;17.842;2023-05-01T03:49:25;101114.97;;;20.11;24.18
14293;BME280;62290;59.420;17.842;2023-05-01T03:51:54;101113.16;;;20.11;23.98
14293;BME280;62290;59.420;17.842;2023-05-01T03:54:22;101110.47;;;20.11;24.25
14293;BME280;62290;59.420;17.842;2023-05-01T03:57:19;101097.94;;;19.99;24.34
14293;BME280;62290;59.420;17.842;2023-05-01T03:59:49;101105.88;;;20.13;24.11
14293;BME280;62290;59.420;17.842;2023-05-01T04:02:18;101100.44;;;20.15;24.39
14293;BME280;62290;59.420;17.842;2023-05-01T04:04:46;101102.81;;;20.19;24.23
14293;BME280;62290;59.420;17.842;2023-05-01T04:07:14;101103.47;;;20.23;24.11
14293;BME280;62290;59.420;17.842;2023-05-01T04:09:45;101096.09;;;20.26;24.34
14293;BME280;62290;59.420;17.842;2023-05-01T04:12:14;101100.31;;;20.30;24.06
14293;BME280;62290;59.420;17.842;2023-05-01T04:14:43;101092.81;;;20.36;24.17
14293;BME280;62290;59.420;17.842;2023-05-01T04:17:11;101094.31;;;20.40;24.24
14293;BME280;62290;59.420;17.842;2023-05-01T04:19:39;101091.31;;;20.44;24.07
14293;BME280;62290;59.420;17.842;2023-05-01T04:22:07;101085.56;;;20.50;24.05
14293;BME280;62290;59.420;17.842;2023-05-01T04:24:36;101089.84;;;20.53;23.87
14293;BME280;62290;59.420;17.842;2023-05-01T04:27:04;101089.31;;;20.60;23.92
14293;BME280;62290;59.420;17.842;2023-05-01T04:29:32;101088.16;;;20.64;23.85
14293;BME280;62290;59.420;17.842;2023-05-01T04:32:02;101087.09;;;20.67;24.10
14293;BME280;62290;59.420;17.842;2023-05-01T04:34:30;101090.19;;;20.73;24.08
14293;BME280;62290;59.420;17.842;2023-05-01T04:36:58;101088.16;;;20.77;23.74
14293;BME280;62290;59.420;17.842;2023-05-01T04:39:28;101090.63;;;20.80;23.78
14293;BME280;62290;59.420;17.842;2023-05-01T04:41:56;101092.03;;;20.85;23.91
14293;BME280;62290;59.420;17.842;2023-05-01T04:44:25;101088.28;;;20.88;23.89
14293;BME280;62290;59.420;17.842;2023-05-01T04:46:53;100975.09;;;20.21;23.59
14293;BME280;62290;59.420;17.842;2023-05-01T04:49:23;101092.31;;;20.93;23.83
14293;BME280;62290;59.420;17.842;2023-05-01T04:51:51;101093.09;;;20.96;23.65
14293;BME280;62290;59.420;17.842;2023-05-01T04:54:21;101101.00;;;20.97;24.01
14293;BME280;62290;59.420;17.842;2023-05-01T04:56:50;101085.81;;;20.98;23.75
14293;BME280;62290;59.420;17.842;2023-05-01T04:59:18;101097.16;;;21.01;23.72
14293;BME280;62290;59.420;17.842;2023-05-01T05:01:46;101096.19;;;21.02;23.69
14293;BME280;62290;59.420;17.842;2023-05-01T05:04:15;101086.34;;;21.03;24.12
14293;BME280;62290;59.420;17.842;2023-05-01T05:06:44;101088.88;;;21.04;23.95
14293;BME280;62290;59.420;17.842;2023-05-01T05:09:17;101087.94;;;21.05;23.71
14293;BME280;62290;59.420;17.842;2023-05-01T05:11:46;101082.50;;;21.07;24.21
14293;BME280;62290;59.420;17.842;2023-05-01T05:14:19;101084.22;;;21.08;24.29
14293;BME280;62290;59.420;17.842;2023-05-01T05:16:48;101086.03;;;21.07;24.19
14293;BME280;62290;59.420;17.842;2023-05-01T05:19:16;101083.34;;;21.07;24.25
14293;BME280;62290;59.420;17.842;2023-05-01T05:21:46;101087.63;;;21.10;23.90
14293;BME280;62290;59.420;17.842;2023-05-01T05:24:14;101075.97;;;21.11;23.93
14293;BME280;62290;59.420;17.842;2023-05-01T05:26:42;101057.94;;;21.00;23.96
14293;BME280;62290;59.420;17.842;2023-05-01T05:29:10;101067.06;;;21.10;24.09
14293;BME280;62290;59.420;17.842;2023-05-01T05:31:38;101084.41;;;21.17;24.22
14293;BME280;62290;59.420;17.842;2023-05-01T05:34:06;101061.69;;;21.10;24.03
14293;BME280;62290;59.420;17.842;2023-05-01T05:36:34;101079.81;;;21.19;24.27
14293;BME280;62290;59.420;17.842;2023-05-01T05:39:04;101079.81;;;21.19;24.22
14293;BME280;62290;59.420;17.842;2023-05-01T05:41:32;101079.91;;;21.18;24.06
14293;BME280;62290;59.420;17.842;2023-05-01T05:44:01;101075.41;;;21.18;24.24
14293;BME280;62290;59.420;17.842;2023-05-01T05:46:30;101076.28;;;21.19;24.25
14293;BME280;62290;59.420;17.842;2023-05-01T05:48:58;101078.09;;;21.18;24.32
14293;BME280;62290;59.420;17.842;2023-05-01T05:51:27;101076.16;;;21.20;24.11
14293;BME280;62290;59.420;17.842;2023-05-01T05:53:56;101076.06;;;21.22;24.44
14293;BME280;62290;59.420;17.842;2023-05-01T05:56:25;101084.84;;;21.24;24.51
14293;BME280;62290;59.420;17.842;2023-05-01T05:58:54;101073.13;;;21.25;24.06
14293;BME280;62290;59.420;17.842;2023-05-01T06:01:22;101080.13;;;21.27;24.47
14293;BME280;62290;59.420;17.842;2023-05-01T06:03:50;101068.41;;;21.28;24.10
14293;BME280;62290;59.420;17.842;2023-05-01T06:06:18;101069.94;;;21.32;24.17
14293;BME280;62290;59.420;17.842;2023-05-01T06:08:47;101072.50;;;21.34;24.40
14293;BME280;62290;59.420;17.842;2023-05-01T06:11:15;101068.00;;;21.34;24.07
14293;BME280;62290;59.420;17.842;2023-05-01T06:13:45;101064.31;;;21.35;24.09
14293;BME280;62290;59.420;17.842;2023-05-01T06:16:13;101069.69;;;21.35;24.49
14293;BME280;62290;59.420;17.842;2023-05-01T06:18:41;101075.03;;;21.35;24.42
14293;BME280;62290;59.420;17.842;2023-05-01T06:21:11;101075.03;;;21.35;24.59
14293;BME280;62290;59.420;17.842;2023-05-01T06:23:40;101073.34;;;21.34;24.67
14293;BME280;62290;59.420;17.842;2023-05-01T06:26:40;101063.59;;;21.33;24.40
14293;BME280;62290;59.420;17.842;2023-05-01T06:29:10;101063.72;;;21.32;24.34
14293;BME280;62290;59.420;17.842;2023-05-01T06:31:38;101059.22;;;21.32;24.42
14293;BME280;62290;59.420;17.842;2023-05-01T06:34:06;101069.94;;;21.32;24.44
14293;BME280;62290;59.420;17.842;2023-05-01T06:36:48;101057.34;;;21.33;24.80
14293;BME280;62290;59.420;17.842;2023-05-01T06:39:16;101064.44;;;21.34;24.60
14293;BME280;62290;59.420;17.842;2023-05-01T06:41:44;101056.28;;;21.35;24.63
14293;BME280;62290;59.420;17.842;2023-05-01T06:44:15;101057.06;;;21.37;24.58
14293;BME280;62290;59.420;17.842;2023-05-01T06:46:43;101058.97;;;21.35;24.85
14293;BME280;62290;59.420;17.842;2023-05-01T06:49:11;101065.84;;;21.39;24.68
14293;BME280;62290;59.420;17.842;2023-05-01T06:51:39;101054.03;;;21.42;24.60
14293;BME280;62290;59.420;17.842;2023-05-01T06:54:07;101022.31;;;21.23;24.88
14293;BME280;62290;59.420;17.842;2023-05-01T06:56:35;101058.19;;;21.46;24.51
14293;BME280;62290;59.420;17.842;2023-05-01T06:59:03;101052.72;;;21.47;24.72
14293;BME280;62290;59.420;17.842;2023-05-01T07:01:33;101047.16;;;21.50;24.53
14293;BME280;62290;59.420;17.842;2023-05-01T07:04:01;101040.63;;;21.42;24.59
14293;BME280;62290;59.420;17.842;2023-05-01T07:06:29;101056.03;;;21.51;24.76
14293;BME280;62290;59.420;17.842;2023-05-01T07:08:58;101055.94;;;21.52;24.76
14293;BME280;62290;59.420;17.842;2023-05-01T07:11:26;101053.34;;;21.51;24.69
14293;BME280;62290;59.420;17.842;2023-05-01T07:13:54;101055.19;;;21.50;24.50
14293;BME280;62290;59.420;17.842;2023-05-01T07:16:22;101057.09;;;21.48;24.64
14293;BME280;62290;59.420;17.842;2023-05-01T07:18:52;101058.09;;;21.47;25.06
14293;BME280;62290;59.420;17.842;2023-05-01T07:21:20;101054.53;;;21.47;25.01
14293;BME280;62290;59.420;17.842;2023-05-01T07:23:48;101035.59;;;21.37;24.76
14293;BME280;62290;59.420;17.842;2023-05-01T07:26:16;101041.78;;;21.38;25.15
14293;BME280;62290;59.420;17.842;2023-05-01T07:28:44;101043.59;;;21.50;24.73
14293;BME280;62290;59.420;17.842;2023-05-01T07:31:12;101028.47;;;21.49;24.74
14293;BME280;62290;59.420;17.842;2023-05-01T07:33:40;101040.69;;;21.53;25.15
14293;BME280;62290;59.420;17.842;2023-05-01T07:36:10;101037.88;;;21.54;25.14
14293;BME280;62290;59.420;17.842;2023-05-01T07:38:38;101032.53;;;21.54;24.80
14293;BME280;62290;59.420;17.842;2023-05-01T07:41:06;101028.75;;;21.57;24.96
14293;BME280;62290;59.420;17.842;2023-05-01T07:43:34;101027.59;;;21.61;24.80
14293;BME280;62290;59.420;17.842;2023-05-01T07:46:02;101032.94;;;21.61;25.11
14293;BME280;62290;59.420;17.842;2023-05-01T07:48:31;101027.47;;;21.63;24.84
14293;BME280;62290;59.420;17.842;2023-05-01T07:51:01;101026.50;;;21.64;24.82
14293;BME280;62290;59.420;17.842;2023-05-01T07:53:30;101022.81;;;21.65;24.77
14293;BME280;62290;59.420;17.842;2023-05-01T07:56:05;101027.22;;;21.66;24.82
14293;BME280;62290;59.420;17.842;2023-05-01T07:58:34;101021.22;;;21.62;25.06
14293;BME280;62290;59.420;17.842;2023-05-01T08:01:04;101018.53;;;21.62;25.20
14293;BME280;62290;59.420;17.842;2023-05-01T08:03:32;101017.69;;;21.62;25.28
14293;BME280;62290;59.420;17.842;2023-05-01T08:06:00;101024.91;;;21.61;25.40
14293;BME280;62290;59.420;17.842;2023-05-01T08:08:28;101015.25;;;21.59;25.44
14293;BME280;62290;59.420;17.842;2023-05-01T08:10:58;100999.97;;;21.48;25.31
14293;BME280;62290;59.420;17.842;2023-05-01T08:13:26;101023.31;;;21.59;25.17
14293;BME280;62290;59.420;17.842;2023-05-01T08:15:54;101019.75;;;21.58;25.09
14293;BME280;62290;59.420;17.842;2023-05-01T08:18:24;101024.13;;;21.59;25.54
14293;BME280;62290;59.420;17.842;2023-05-01T08:20:52;101017.69;;;21.62;25.46
14293;BME280;62290;59.420;17.842;2023-05-01T08:23:21;101023.06;;;21.62;25.12
14293;BME280;62290;59.420;17.842;2023-05-01T08:25:50;101022.09;;;21.63;25.03
14293;BME280;62290;59.420;17.842;2023-05-01T08:28:22;101026.50;;;21.64;25.31
14293;BME280;62290;59.420;17.842;2023-05-01T08:30:50;101023.91;;;21.62;25.08
14293;BME280;62290;59.420;17.842;2023-05-01T08:33:18;101022.94;;;21.63;25.33
14293;BME280;62290;59.420;17.842;2023-05-01T08:35:47;101020.38;;;21.62;25.35
14293;BME280;62290;59.420;17.842;2023-05-01T08:38:15;101018.44;;;21.64;25.26
14293;BME280;62290;59.420;17.842;2023-05-01T08:40:48;101021.88;;;21.66;25.44
14293;BME280;62290;59.420;17.842;2023-05-01T08:43:18;101019.19;;;21.66;25.23
14293;BME280;62290;59.420;17.842;2023-05-01T08:45:48;101015.50;;;21.67;25.02
14293;BME280;62290;59.420;17.842;2023-05-01T08:48:18;101017.47;;;21.65;24.98
14293;BME280;62290;59.420;17.842;2023-05-01T08:50:48;101017.47;;;21.65;25.34
14293;BME280;62290;59.420;17.842;2023-05-01T08:53:17;101014.91;;;21.63;25.13
14293;BME280;62290;59.420;17.842;2023-05-01T08:55:46;101015.78;;;21.64;25.35
14293;BME280;62290;59.420;17.842;2023-05-01T08:58:16;101015.63;;;21.65;25.32
14293;BME280;62290;59.420;17.842;2023-05-01T09:00:47;101013.19;;;21.62;25.22
14293;BME280;62290;59.420;17.842;2023-05-01T09:03:16;101002.59;;;21.61;25.21
14293;BME280;62290;59.420;17.842;2023-05-01T09:05:45;101010.50;;;21.62;25.47
14293;BME280;62290;59.420;17.842;2023-05-01T09:08:13;101012.31;;;21.62;25.66
14293;BME280;62290;59.420;17.842;2023-05-01T09:10:44;101011.38;;;21.63;25.39
14293;BME280;62290;59.420;17.842;2023-05-01T09:13:12;101007.09;;;21.60;25.49
14293;BME280;62290;59.420;17.842;2023-05-01T09:15:40;101003.53;;;21.60;25.39
14293;BME280;62290;59.420;17.842;2023-05-01T09:18:10;101007.09;;;21.60;25.69
14293;BME280;62290;59.420;17.842;2023-05-01T09:20:39;101008.03;;;21.59;25.75
14293;BME280;62290;59.420;17.842;2023-05-01T09:23:07;101000.13;;;21.58;25.53
14293;BME280;62290;59.420;17.842;2023-05-01T09:25:35;100997.44;;;21.58;25.83
14293;BME280;62290;59.420;17.842;2023-05-01T09:28:04;100994.75;;;21.58;25.63
14293;BME280;62290;59.420;17.842;2023-05-01T09:30:33;100994.75;;;21.58;25.80
14293;BME280;62290;59.420;17.842;2023-05-01T09:33:06;100991.13;;;21.59;25.71
14293;BME280;62290;59.420;17.842;2023-05-01T09:35:49;100993.91;;;21.57;26.42
14293;BME280;62290;59.420;17.842;2023-05-01T09:38:19;100984.25;;;21.54;26.78
14293;BME280;62290;59.420;17.842;2023-05-01T09:40:47;100986.06;;;21.54;26.81
14293;BME280;62290;59.420;17.842;2023-05-01T09:43:23;100975.25;;;21.56;26.88
14293;BME280;62290;59.420;17.842;2023-05-01T09:46:04;100974.47;;;21.53;26.80
14293;BME280;62290;59.420;17.842;2023-05-01T09:48:33;100981.78;;;21.51;26.86
14293;BME280;62290;59.420;17.842;2023-05-01T09:51:19;100975.47;;;21.52;26.74
14293;BME280;62290;59.420;17.842;2023-05-01T09:53:48;100972.88;;;21.51;26.67
14293;BME280;62290;59.420;17.842;2023-05-01T09:56:17;100968.50;;;21.50;26.82
14293;BME280;62290;59.420;17.842;2023-05-01T09:58:45;100977.41;;;21.50;26.76
14293;BME280;62290;59.420;17.842;2023-05-01T10:01:13;100971.19;;;21.50;26.54
14293;BME280;62290;59.420;17.842;2023-05-01T10:03:42;100965.84;;;21.50;26.62
14293;BME280;62290;59.420;17.842;2023-05-01T10:06:25;100958.66;;;21.50;26.94
14293;BME280;62290;59.420;17.842;2023-05-01T10:08:54;100952.53;;;21.48;26.55
14293;BME280;62290;59.420;17.842;2023-05-01T10:11:22;100926.84;;;21.33;26.54
14293;BME280;62290;59.420;17.842;2023-05-01T10:14:05;100949.84;;;21.48;26.88
14293;BME280;62290;59.420;17.842;2023-05-01T10:16:35;100933.25;;;21.43;26.96
14293;BME280;62290;59.420;17.842;2023-05-01T10:19:04;100942.66;;;21.49;26.76
14293;BME280;62290;59.420;17.842;2023-05-01T10:21:33;100937.28;;;21.49;27.23
14293;BME280;62290;59.420;17.842;2023-05-01T10:24:02;100923.66;;;21.52;27.02
14293;BME280;62290;59.420;17.842;2023-05-01T10:26:31;100930.63;;;21.54;27.49
14293;BME280;62290;59.420;17.842;2023-05-01T10:29:00;100921.63;;;21.56;27.62
14293;BME280;62290;59.420;17.842;2023-05-01T10:31:29;100916.34;;;21.54;27.41
14293;BME280;62290;59.420;17.842;2023-05-01T10:33:59;100921.25;;;21.60;27.17
14293;BME280;62290;59.420;17.842;2023-05-01T10:36:31;100915.91;;;21.60;27.00
14293;BME280;62290;59.420;17.842;2023-05-01T10:39:02;100917.72;;;21.60;26.85
14293;BME280;62290;59.420;17.842;2023-05-01T10:42:03;100914.94;;;21.61;26.91
14293;BME280;62290;59.420;17.842;2023-05-01T10:44:32;100915.25;;;21.57;26.84
14293;BME280;62290;59.420;17.842;2023-05-01T10:50:09;100879.34;;;21.35;27.07
14293;BME280;62290;59.420;17.842;2023-05-01T10:53:17;100907.44;;;21.53;26.94
14293;BME280;62290;59.420;17.842;2023-05-01T10:55:47;100898.66;;;21.51;27.21
14293;BME280;62290;59.420;17.842;2023-05-01T10:58:55;100895.25;;;21.49;26.87
14293;BME280;62290;59.420;17.842;2023-05-01T11:01:29;100892.69;;;21.48;27.07
14293;BME280;62290;59.420;17.842;2023-05-01T11:03:59;100888.16;;;21.48;27.22
14293;BME280;62290;59.420;17.842;2023-05-01T11:06:27;100881.97;;;21.48;27.04
14293;BME280;62290;59.420;17.842;2023-05-01T11:08:55;100881.97;;;21.48;27.51
14293;BME280;62290;59.420;17.842;2023-05-01T11:11:47;100875.75;;;21.47;27.42
14293;BME280;62290;59.420;17.842;2023-05-01T11:14:16;100868.78;;;21.45;27.49
14293;BME280;62290;59.420;17.842;2023-05-01T11:16:45;100866.13;;;21.45;27.69
14293;BME280;62290;59.420;17.842;2023-05-01T11:19:45;100866.13;;;21.45;27.48
14293;BME280;62290;59.420;17.842;2023-05-01T11:22:18;100856.47;;;21.42;27.30
14293;BME280;62290;59.420;17.842;2023-05-01T11:24:46;100854.66;;;21.43;27.65
14293;BME280;62290;59.420;17.842;2023-05-01T11:27:16;100858.28;;;21.42;27.74
14293;BME280;62290;59.420;17.842;2023-05-01T11:29:44;100827.16;;;21.28;27.62
14293;BME280;62290;59.420;17.842;2023-05-01T11:32:21;100852.06;;;21.41;27.63
14293;BME280;62290;59.420;17.842;2023-05-01T11:34:51;100843.28;;;21.39;27.82
14293;BME280;62290;59.420;17.842;2023-05-01T11:37:19;100851.34;;;21.39;27.54
14293;BME280;62290;59.420;17.842;2023-05-01T11:39:49;100849.63;;;21.38;27.87
14293;BME280;62290;59.420;17.842;2023-05-01T11:42:20;100815.44;;;21.18;27.76
14293;BME280;62290;59.420;17.842;2023-05-01T11:45:05;100845.13;;;21.39;27.66
14293;BME280;62290;59.420;17.842;2023-05-01T11:47:34;100840.84;;;21.36;28.02
14293;BME280;62290;59.420;17.842;2023-05-01T11:50:02;100833.16;;;21.32;27.92
14293;BME280;62290;59.420;17.842;2023-05-01T11:52:41;100843.53;;;21.36;27.78
14293;BME280;62290;59.420;17.842;2023-05-01T11:55:10;100834.75;;;21.34;27.79
14293;BME280;62290;59.420;17.842;2023-05-01T11:57:47;100847.16;;;21.35;28.18
14293;BME280;62290;59.420;17.842;2023-05-01T12:00:25;100841.06;;;21.33;28.19
14293;BME280;62290;59.420;17.842;2023-05-01T12:02:57;100846.56;;;21.32;28.20
14293;BME280;62290;59.420;17.842;2023-05-01T12:05:27;100840.47;;;21.30;28.09
14293;BME280;62290;59.420;17.842;2023-05-01T12:08:06;100834.97;;;21.31;28.29
14293;BME280;62290;59.420;17.842;2023-05-01T12:10:35;100834.25;;;21.29;28.34
14293;BME280;62290;59.420;17.842;2023-05-01T12:13:06;100835.09;;;21.30;28.54
14293;BME280;62290;59.420;17.842;2023-05-01T12:15:35;100831.56;;;21.29;28.62
14293;BME280;62290;59.420;17.842;2023-05-01T12:18:04;100821.81;;;21.28;28.73
14293;BME280;62290;59.420;17.842;2023-05-01T12:20:37;100810.72;;;21.22;28.78
14293;BME280;62290;59.420;17.842;2023-05-01T12:23:06;100818.38;;;21.26;28.91
14293;BME280;62290;59.420;17.842;2023-05-01T12:25:36;100819.34;;;21.25;28.87
14293;BME280;62290;59.420;17.842;2023-05-01T12:28:11;100814.84;;;21.26;29.03
14293;BME280;62290;59.420;17.842;2023-05-01T12:30:40;100817.16;;;21.19;29.13
14293;BME280;62290;59.420;17.842;2023-05-01T12:33:10;100813.47;;;21.20;29.04
14293;BME280;62290;59.420;17.842;2023-05-01T12:35:41;100782.69;;;21.02;29.46
14293;BME280;62290;59.420;17.842;2023-05-01T12:38:12;100810.19;;;21.17;29.60
14293;BME280;62290;59.420;17.842;2023-05-01T12:40:50;100805.94;;;21.14;29.48
14293;BME280;62290;59.420;17.842;2023-05-01T12:43:28;100801.75;;;21.10;29.64
14293;BME280;62290;59.420;17.842;2023-05-01T12:45:56;100790.50;;;21.05;29.58
14293;BME280;62290;59.420;17.842;2023-05-01T12:48:25;100805.28;;;21.11;29.50
14293;BME280;62290;59.420;17.842;2023-05-01T12:50:53;100803.56;;;21.10;29.60
14293;BME280;62290;59.420;17.842;2023-05-01T12:53:23;100793.84;;;21.09;29.58
14293;BME280;62290;59.420;17.842;2023-05-01T12:55:54;100791.25;;;21.07;30.12
14293;BME280;62290;59.420;17.842;2023-05-01T12:58:33;100786.00;;;21.06;30.42
14293;BME280;62290;59.420;17.842;2023-05-01T13:01:02;100792.13;;;21.08;31.18
14293;BME280;62290;59.420;17.842;2023-05-01T13:03:32;100787.41;;;21.11;31.44
14293;BME280;62290;59.420;17.842;2023-05-01T13:06:05;100786.53;;;21.11;31.65